sensor_id;sensor_type;location;lat;lon;timestamp;pressure;altitude;pressure_sealevel;temperature;humidity
3254;BME280;1639;42.804;23.342;2023-09-08T00:01:46;72389.09;;;-148.52;57.71
3254;BME280;1639;42.804;23.342;2023-09-08T00:04:11;72391.16;;;-148.52;57.85
3254;BME280;1639;42.804;23.342;2023-09-08T00:06:37;72399.44;;;-148.52;58.60
3254;BME280;1639;42.804;23.342;2023-09-08T00:09:02;72389.09;;;-148.52;58.16
3254;BME280;1639;42.804;23.342;2023-09-08T00:11:28;72362.22;;;-148.52;57.49
3254;BME280;1639;42.804;23.342;2023-09-08T00:13:53;72356.00;;;-148.52;57.04
3254;BME280;1639;42.804;23.342;2023-09-08T00:16:19;72351.88;;;-148.52;57.36
3254;BME280;1639;42.804;23.342;2023-09-08T00:18:44;72356.00;;;-148.52;57.52
3254;BME280;1639;42.804;23.342;2023-09-08T00:21:10;72358.06;;;-148.52;58.05
3254;BME280;1639;42.804;23.342;2023-09-08T00:23:35;72351.88;;;-148.52;57.99
3254;BME280;1639;42.804;23.342;2023-09-08T00:26:01;72349.81;;;-148.52;58.00
3254;BME280;1639;42.804;23.342;2023-09-08T00:28:26;72356.00;;;-148.52;58.82
3254;BME280;1639;42.804;23.342;2023-09-08T00:30:52;72356.00;;;-148.52;59.02
3254;BME280;1639;42.804;23.342;2023-09-08T00:33:17;72353.94;;;-148.52;59.12
3254;BME280;1639;42.804;23.342;2023-09-08T00:35:45;72353.94;;;-148.52;59.08
3254;BME280;1639;42.804;23.342;2023-09-08T00:38:13;72347.72;;;-148.52;59.65
3254;BME280;1639;42.804;23.342;2023-09-08T00:40:38;72351.88;;;-148.52;59.56
3254;BME280;1639;42.804;23.342;2023-09-08T00:43:04;72364.28;;;-148.52;60.16
3254;BME280;1639;42.804;23.342;2023-09-08T00:45:29;72376.69;;;-148.52;60.54
3254;BME280;1639;42.804;23.342;2023-09-08T00:47:55;72397.38;;;-148.52;61.33
3254;BME280;1639;42.804;23.342;2023-09-08T00:50:21;72438.72;;;-148.52;63.07
3254;BME280;1639;42.804;23.342;2023-09-08T00:52:46;72434.59;;;-148.52;62.84
3254;BME280;1639;42.804;23.342;2023-09-08T00:55:12;72457.34;;;-148.52;63.85
3254;BME280;1639;42.804;23.342;2023-09-08T00:57:37;72480.09;;;-148.52;63.99
3254;BME280;1639;42.804;23.342;2023-09-08T01:00:03;72471.81;;;-148.52;64.17
3254;BME280;1639;42.804;23.342;2023-09-08T01:02:32;72488.34;;;-148.52;64.59
3254;BME280;1639;42.804;23.342;2023-09-08T01:04:58;72480.09;;;-148.52;64.46
3254;BME280;1639;42.804;23.342;2023-09-08T01:07:25;72471.81;;;-148.52;64.08
3254;BME280;1639;42.804;23.342;2023-09-08T01:09:52;72492.50;;;-148.52;65.00
3254;BME280;1639;42.804;23.342;2023-09-08T01:12:18;72492.50;;;-148.52;65.08
3254;BME280;1639;42.804;23.342;2023-09-08T01:14:44;72484.22;;;-148.52;64.62
3254;BME280;1639;42.804;23.342;2023-09-08T01:17:09;72488.34;;;-148.52;64.31
3254;BME280;1639;42.804;23.342;2023-09-08T01:19:35;72486.28;;;-148.52;64.47
3254;BME280;1639;42.804;23.342;2023-09-08T01:27:37;72515.22;;;-148.52;64.34
3254;BME280;1639;42.804;23.342;2023-09-08T01:30:04;72519.38;;;-148.52;64.45
3254;BME280;1639;42.804;23.342;2023-09-08T01:32:31;72529.72;;;-148.52;64.65
3254;BME280;1639;42.804;23.342;2023-09-08T01:34:58;72521.44;;;-148.52;64.15
3254;BME280;1639;42.804;23.342;2023-09-08T01:37:24;72519.38;;;-148.52;63.85
3254;BME280;1639;42.804;23.342;2023-09-08T01:39:49;72517.31;;;-148.52;63.01
3254;BME280;1639;42.804;23.342;2023-09-08T01:42:15;72542.13;;;-148.52;62.58
3254;BME280;1639;42.804;23.342;2023-09-08T01:44:40;72554.53;;;-148.52;62.46
3254;BME280;1639;42.804;23.342;2023-09-08T01:47:05;72579.34;;;-148.52;62.57
3254;BME280;1639;42.804;23.342;2023-09-08T01:49:31;72581.41;;;-148.52;61.97
3254;BME280;1639;42.804;23.342;2023-09-08T01:51:56;72571.06;;;-148.52;62.15
3254;BME280;1639;42.804;23.342;2023-09-08T01:54:22;72579.34;;;-148.52;61.88
3254;BME280;1639;42.804;23.342;2023-09-08T01:56:47;72602.09;;;-148.52;61.60
3254;BME280;1639;42.804;23.342;2023-09-08T01:59:12;72608.28;;;-148.52;62.00
3254;BME280;1639;42.804;23.342;2023-09-08T02:01:38;72606.22;;;-148.52;61.91
3254;BME280;1639;42.804;23.342;2023-09-08T02:04:03;72612.44;;;-148.52;61.79
3254;BME280;1639;42.804;23.342;2023-09-08T02:06:29;72604.16;;;-148.52;61.10
3254;BME280;1639;42.804;23.342;2023-09-08T02:08:54;72608.28;;;-148.52;61.11
3254;BME280;1639;42.804;23.342;2023-09-08T02:11:20;72628.97;;;-148.52;62.02
3254;BME280;1639;42.804;23.342;2023-09-08T02:13:45;72643.44;;;-148.52;62.57
3254;BME280;1639;42.804;23.342;2023-09-08T02:16:14;72643.44;;;-148.52;62.25
3254;BME280;1639;42.804;23.342;2023-09-08T02:18:41;72653.78;;;-148.52;63.13
3254;BME280;1639;42.804;23.342;2023-09-08T02:21:07;72657.94;;;-148.52;63.03
3254;BME280;1639;42.804;23.342;2023-09-08T02:23:32;72676.53;;;-148.52;62.68
3254;BME280;1639;42.804;23.342;2023-09-08T02:25:57;72691.00;;;-148.52;63.03
3254;BME280;1639;42.804;23.342;2023-09-08T02:28:23;72678.59;;;-148.52;62.60
3254;BME280;1639;42.804;23.342;2023-09-08T02:30:48;72699.28;;;-148.52;62.87
3254;BME280;1639;42.804;23.342;2023-09-08T02:33:13;72678.59;;;-148.52;62.99
3254;BME280;1639;42.804;23.342;2023-09-08T02:35:39;72686.88;;;-148.52;63.50
3254;BME280;1639;42.804;23.342;2023-09-08T02:38:05;72697.22;;;-148.52;63.70
3254;BME280;1639;42.804;23.342;2023-09-08T02:40:30;72686.88;;;-148.52;63.16
3254;BME280;1639;42.804;23.342;2023-09-08T02:42:55;72688.94;;;-148.52;63.13
3254;BME280;1639;42.804;23.342;2023-09-08T02:45:21;72693.09;;;-148.52;63.15
3254;BME280;1639;42.804;23.342;2023-09-08T02:47:46;72697.22;;;-148.52;63.32
3254;BME280;1639;42.804;23.342;2023-09-08T02:50:12;72693.09;;;-148.52;63.83
3254;BME280;1639;42.804;23.342;2023-09-08T02:52:37;72695.16;;;-148.52;64.10
3254;BME280;1639;42.804;23.342;2023-09-08T02:55:02;72728.25;;;-148.52;64.88
3254;BME280;1639;42.804;23.342;2023-09-08T02:57:28;72724.09;;;-148.52;64.82
3254;BME280;1639;42.804;23.342;2023-09-08T02:59:53;72742.72;;;-148.52;64.88
3254;BME280;1639;42.804;23.342;2023-09-08T03:02:22;72757.19;;;-148.52;65.61
3254;BME280;1639;42.804;23.342;2023-09-08T03:04:48;72782.00;;;-148.52;66.52
3254;BME280;1639;42.804;23.342;2023-09-08T03:07:13;72790.28;;;-148.52;66.79
3254;BME280;1639;42.804;23.342;2023-09-08T03:09:39;72802.69;;;-148.52;67.08
3254;BME280;1639;42.804;23.342;2023-09-08T03:12:04;72810.97;;;-148.52;67.81
3254;BME280;1639;42.804;23.342;2023-09-08T03:14:30;72808.91;;;-148.52;68.39
3254;BME280;1639;42.804;23.342;2023-09-08T03:16:55;72794.41;;;-148.52;68.82
3254;BME280;1639;42.804;23.342;2023-09-08T03:19:20;72806.81;;;-148.52;68.97
3254;BME280;1639;42.804;23.342;2023-09-08T03:21:46;72806.81;;;-148.52;69.38
3254;BME280;1639;42.804;23.342;2023-09-08T03:24:11;72790.28;;;-148.52;68.81
3254;BME280;1639;42.804;23.342;2023-09-08T03:26:36;72806.81;;;-148.52;69.21
3254;BME280;1639;42.804;23.342;2023-09-08T03:29:02;72813.03;;;-148.52;68.81
3254;BME280;1639;42.804;23.342;2023-09-08T03:31:28;72802.69;;;-148.52;68.62
3254;BME280;1639;42.804;23.342;2023-09-08T03:33:54;72817.16;;;-148.52;69.17
3254;BME280;1639;42.804;23.342;2023-09-08T03:36:19;72825.44;;;-148.52;70.02
3254;BME280;1639;42.804;23.342;2023-09-08T03:38:44;72815.09;;;-148.52;70.13
3254;BME280;1639;42.804;23.342;2023-09-08T03:41:10;72810.97;;;-148.52;69.91
3254;BME280;1639;42.804;23.342;2023-09-08T03:43:36;72813.03;;;-148.52;69.92
3254;BME280;1639;42.804;23.342;2023-09-08T03:46:01;72831.66;;;-148.52;70.70
3254;BME280;1639;42.804;23.342;2023-09-08T03:48:26;72831.66;;;-148.52;71.40
3254;BME280;1639;42.804;23.342;2023-09-08T03:50:52;72831.66;;;-148.52;73.18
3254;BME280;1639;42.804;23.342;2023-09-08T03:53:17;72835.78;;;-148.52;74.96
3254;BME280;1639;42.804;23.342;2023-09-08T03:55:43;72839.91;;;-148.52;75.42
3254;BME280;1639;42.804;23.342;2023-09-08T03:58:08;72837.84;;;-148.52;75.65
3254;BME280;1639;42.804;23.342;2023-09-08T04:00:34;72856.47;;;-148.52;76.29
3254;BME280;1639;42.804;23.342;2023-09-08T04:02:59;72833.72;;;-148.52;75.84
3254;BME280;1639;42.804;23.342;2023-09-08T04:05:25;72846.13;;;-148.52;75.82
3254;BME280;1639;42.804;23.342;2023-09-08T04:07:50;72860.59;;;-148.52;75.98
3254;BME280;1639;42.804;23.342;2023-09-08T04:10:16;72844.06;;;-148.52;76.38
3254;BME280;1639;42.804;23.342;2023-09-08T04:12:41;72848.19;;;-148.52;75.75
3254;BME280;1639;42.804;23.342;2023-09-08T04:15:08;72839.91;;;-148.52;75.04
3254;BME280;1639;42.804;23.342;2023-09-08T04:17:33;72846.13;;;-148.52;74.45
3254;BME280;1639;42.804;23.342;2023-09-08T04:20:01;72839.91;;;-148.52;73.76
3254;BME280;1639;42.804;23.342;2023-09-08T04:22:26;72833.72;;;-148.52;73.69
3254;BME280;1639;42.804;23.342;2023-09-08T04:24:52;72825.44;;;-148.52;73.45
3254;BME280;1639;42.804;23.342;2023-09-08T04:27:19;72802.69;;;-148.52;71.63
3254;BME280;1639;42.804;23.342;2023-09-08T04:29:44;72788.22;;;-148.52;70.98
3254;BME280;1639;42.804;23.342;2023-09-08T04:32:10;72808.91;;;-148.52;70.94
3254;BME280;1639;42.804;23.342;2023-09-08T04:34:39;72788.22;;;-148.52;69.88
3254;BME280;1639;42.804;23.342;2023-09-08T04:37:05;72773.75;;;-148.52;69.24
3254;BME280;1639;42.804;23.342;2023-09-08T04:39:31;72775.81;;;-148.52;69.24
3254;BME280;1639;42.804;23.342;2023-09-08T04:41:57;72769.59;;;-148.52;68.94
3254;BME280;1639;42.804;23.342;2023-09-08T04:44:22;72757.19;;;-148.52;68.35
3254;BME280;1639;42.804;23.342;2023-09-08T04:46:48;72748.91;;;-148.52;68.12
3254;BME280;1639;42.804;23.342;2023-09-08T04:49:13;72740.66;;;-148.52;67.15
3254;BME280;1639;42.804;23.342;2023-09-08T04:51:39;72719.97;;;-148.52;66.67
3254;BME280;1639;42.804;23.342;2023-09-08T04:54:04;72701.34;;;-148.52;65.96
3254;BME280;1639;42.804;23.342;2023-09-08T04:56:30;72684.81;;;-148.52;64.77
3254;BME280;1639;42.804;23.342;2023-09-08T04:58:55;72666.19;;;-148.52;63.48
3254;BME280;1639;42.804;23.342;2023-09-08T05:01:21;72662.06;;;-148.52;63.28
3254;BME280;1639;42.804;23.342;2023-09-08T05:03:47;72637.25;;;-148.52;62.69
3254;BME280;1639;42.804;23.342;2023-09-08T05:06:12;72620.69;;;-148.52;62.62
3254;BME280;1639;42.804;23.342;2023-09-08T05:08:39;72624.84;;;-148.52;61.11
3254;BME280;1639;42.804;23.342;2023-09-08T05:11:04;72614.50;;;-148.52;61.05
3254;BME280;1639;42.804;23.342;2023-09-08T05:13:30;72620.69;;;-148.52;61.30
3254;BME280;1639;42.804;23.342;2023-09-08T05:15:56;72626.91;;;-148.52;61.49
3254;BME280;1639;42.804;23.342;2023-09-08T05:18:28;72597.97;;;-148.52;60.35
3254;BME280;1639;42.804;23.342;2023-09-08T05:20:54;72622.78;;;-148.52;61.57
3254;BME280;1639;42.804;23.342;2023-09-08T05:23:19;72600.03;;;-148.52;60.83
3254;BME280;1639;42.804;23.342;2023-09-08T05:25:45;72585.53;;;-148.52;60.44
3254;BME280;1639;42.804;23.342;2023-09-08T05:28:10;72575.22;;;-148.52;60.64
3254;BME280;1639;42.804;23.342;2023-09-08T05:30:36;72558.66;;;-148.52;59.13
3254;BME280;1639;42.804;23.342;2023-09-08T05:33:01;72537.97;;;-148.52;58.60
3254;BME280;1639;42.804;23.342;2023-09-08T05:35:27;72533.84;;;-148.52;58.75
3254;BME280;1639;42.804;23.342;2023-09-08T05:37:52;72523.50;;;-148.52;58.28
3254;BME280;1639;42.804;23.342;2023-09-08T05:40:17;72531.78;;;-148.52;59.00
3254;BME280;1639;42.804;23.342;2023-09-08T05:42:44;72513.16;;;-148.52;59.20
3254;BME280;1639;42.804;23.342;2023-09-08T05:45:09;72486.28;;;-148.52;58.85
3254;BME280;1639;42.804;23.342;2023-09-08T05:47:35;72467.66;;;-148.52;59.38
3254;BME280;1639;42.804;23.342;2023-09-08T05:50:01;72449.06;;;-148.52;58.71
3254;BME280;1639;42.804;23.342;2023-09-08T05:52:26;72447.00;;;-148.52;60.22
3254;BME280;1639;42.804;23.342;2023-09-08T05:54:53;72426.31;;;-148.52;60.68
3254;BME280;1639;42.804;23.342;2023-09-08T05:57:18;72409.78;;;-148.52;61.65
3254;BME280;1639;42.804;23.342;2023-09-08T05:59:44;72409.78;;;-148.52;63.20
3254;BME280;1639;42.804;23.342;2023-09-08T06:02:09;72395.28;;;-148.52;63.05
3254;BME280;1639;42.804;23.342;2023-09-08T06:04:35;72387.03;;;-148.52;62.78
3254;BME280;1639;42.804;23.342;2023-09-08T06:07:00;72366.34;;;-148.52;62.29
3254;BME280;1639;42.804;23.342;2023-09-08T06:09:25;72356.00;;;-148.52;62.82
3254;BME280;1639;42.804;23.342;2023-09-08T06:11:51;72347.72;;;-148.52;62.14
3254;BME280;1639;42.804;23.342;2023-09-08T06:14:16;72335.31;;;-148.52;61.70
3254;BME280;1639;42.804;23.342;2023-09-08T06:16:41;72314.66;;;-148.52;62.90
3254;BME280;1639;42.804;23.342;2023-09-08T06:19:07;72329.13;;;-148.52;63.80
3254;BME280;1639;42.804;23.342;2023-09-08T06:21:32;72302.25;;;-148.52;62.89
3254;BME280;1639;42.804;23.342;2023-09-08T06:23:58;72273.28;;;-148.52;62.00
3254;BME280;1639;42.804;23.342;2023-09-08T06:26:23;72252.63;;;-148.52;61.27
3254;BME280;1639;42.804;23.342;2023-09-08T06:28:48;72248.47;;;-148.52;60.20
3254;BME280;1639;42.804;23.342;2023-09-08T06:31:14;72242.28;;;-148.52;60.77
3254;BME280;1639;42.804;23.342;2023-09-08T06:33:40;72231.94;;;-148.52;59.72
3254;BME280;1639;42.804;23.342;2023-09-08T06:36:05;72225.72;;;-148.52;59.92
3254;BME280;1639;42.804;23.342;2023-09-08T06:38:32;72221.59;;;-148.52;59.65
3254;BME280;1639;42.804;23.342;2023-09-08T06:40:58;72227.78;;;-148.52;58.08
3254;BME280;1639;42.804;23.342;2023-09-08T06:43:24;72203.00;;;-148.52;58.31
3254;BME280;1639;42.804;23.342;2023-09-08T06:45:49;72184.38;;;-148.52;56.51
3254;BME280;1639;42.804;23.342;2023-09-08T06:48:15;72178.16;;;-148.52;52.40
3254;BME280;1639;42.804;23.342;2023-09-08T06:50:41;72159.56;;;-148.52;50.86
3254;BME280;1639;42.804;23.342;2023-09-08T06:53:06;72134.75;;;-148.52;48.75
3254;BME280;1639;42.804;23.342;2023-09-08T06:55:32;72122.34;;;-148.52;50.56
3254;BME280;1639;42.804;23.342;2023-09-08T06:57:57;72138.88;;;-148.52;47.42
3254;BME280;1639;42.804;23.342;2023-09-08T07:00:23;72149.22;;;-148.52;47.89
3254;BME280;1639;42.804;23.342;2023-09-08T07:02:49;72112.00;;;-148.52;47.69
3254;BME280;1639;42.804;23.342;2023-09-08T07:05:17;72107.88;;;-148.52;45.91
3254;BME280;1639;42.804;23.342;2023-09-08T07:07:42;72103.72;;;-148.52;46.09
3254;BME280;1639;42.804;23.342;2023-09-08T07:10:08;72081.00;;;-148.52;46.61
3254;BME280;1639;42.804;23.342;2023-09-08T07:12:34;72054.09;;;-148.52;46.73
3254;BME280;1639;42.804;23.342;2023-09-08T07:14:59;72029.28;;;-148.52;45.52
3254;BME280;1639;42.804;23.342;2023-09-08T07:17:25;72029.28;;;-148.52;45.09
3254;BME280;1639;42.804;23.342;2023-09-08T07:19:51;71998.28;;;-148.52;44.08
3254;BME280;1639;42.804;23.342;2023-09-08T07:22:17;71994.13;;;-148.52;44.28
3254;BME280;1639;42.804;23.342;2023-09-08T07:24:42;71946.59;;;-148.52;44.21
3254;BME280;1639;42.804;23.342;2023-09-08T07:27:08;71930.03;;;-148.52;43.97
3254;BME280;1639;42.804;23.342;2023-09-08T07:29:33;71954.84;;;-148.52;44.36
3254;BME280;1639;42.804;23.342;2023-09-08T07:31:59;71930.03;;;-148.52;44.56
3254;BME280;1639;42.804;23.342;2023-09-08T07:34:24;71909.38;;;-148.52;46.47
3254;BME280;1639;42.804;23.342;2023-09-08T07:36:50;71934.19;;;-148.52;46.71
3254;BME280;1639;42.804;23.342;2023-09-08T07:39:15;71925.91;;;-148.52;47.22
3254;BME280;1639;42.804;23.342;2023-09-08T07:41:41;71942.44;;;-148.52;48.21
3254;BME280;1639;42.804;23.342;2023-09-08T07:44:07;71934.19;;;-148.52;47.66
3254;BME280;1639;42.804;23.342;2023-09-08T07:46:32;71940.38;;;-148.52;48.13
3254;BME280;1639;42.804;23.342;2023-09-08T07:48:58;71942.44;;;-148.52;46.63
3254;BME280;1639;42.804;23.342;2023-09-08T07:51:24;71977.59;;;-148.52;46.29
3254;BME280;1639;42.804;23.342;2023-09-08T07:53:50;71979.66;;;-148.52;45.94
3254;BME280;1639;42.804;23.342;2023-09-08T07:56:15;71983.81;;;-148.52;46.60
3254;BME280;1639;42.804;23.342;2023-09-08T07:58:41;71975.53;;;-148.52;46.95
3254;BME280;1639;42.804;23.342;2023-09-08T08:01:06;71979.66;;;-148.52;46.75
3254;BME280;1639;42.804;23.342;2023-09-08T08:03:32;72016.88;;;-148.52;47.80
3254;BME280;1639;42.804;23.342;2023-09-08T08:05:57;72008.63;;;-148.52;48.34
3254;BME280;1639;42.804;23.342;2023-09-08T08:08:23;71979.66;;;-148.52;47.44
3254;BME280;1639;42.804;23.342;2023-09-08T08:10:49;71965.19;;;-148.52;47.25
3254;BME280;1639;42.804;23.342;2023-09-08T08:13:14;71961.06;;;-148.52;47.15
3254;BME280;1639;42.804;23.342;2023-09-08T08:15:40;71963.13;;;-148.52;43.13
3254;BME280;1639;42.804;23.342;2023-09-08T08:18:08;71979.66;;;-148.52;43.76
3254;BME280;1639;42.804;23.342;2023-09-08T08:20:35;71963.13;;;-148.52;43.23
3254;BME280;1639;42.804;23.342;2023-09-08T08:23:05;71994.13;;;-148.52;43.49
3254;BME280;1639;42.804;23.342;2023-09-08T08:25:31;72014.81;;;-148.52;43.18
3254;BME280;1639;42.804;23.342;2023-09-08T08:27:57;72023.09;;;-148.52;43.20
3254;BME280;1639;42.804;23.342;2023-09-08T08:30:24;72031.38;;;-148.52;43.70
3254;BME280;1639;42.804;23.342;2023-09-08T08:32:49;72052.03;;;-148.52;43.36
3254;BME280;1639;42.804;23.342;2023-09-08T08:35:16;72029.28;;;-148.52;43.31
3254;BME280;1639;42.804;23.342;2023-09-08T08:37:42;72045.84;;;-148.52;43.18
3254;BME280;1639;42.804;23.342;2023-09-08T08:40:10;72062.38;;;-148.52;43.11
3254;BME280;1639;42.804;23.342;2023-09-08T08:42:39;72047.91;;;-148.52;43.64
3254;BME280;1639;42.804;23.342;2023-09-08T08:45:05;72064.44;;;-148.52;44.25
3254;BME280;1639;42.804;23.342;2023-09-08T08:47:31;72049.97;;;-148.52;43.63
3254;BME280;1639;42.804;23.342;2023-09-08T08:49:58;72021.03;;;-148.52;43.34
3254;BME280;1639;42.804;23.342;2023-09-08T08:52:25;72023.09;;;-148.52;43.38
3254;BME280;1639;42.804;23.342;2023-09-08T08:54:50;72037.56;;;-148.52;43.45
3254;BME280;1639;42.804;23.342;2023-09-08T08:57:15;72012.75;;;-148.52;44.29
3254;BME280;1639;42.804;23.342;2023-09-08T08:59:41;72006.56;;;-148.52;43.70
3254;BME280;1639;42.804;23.342;2023-09-08T09:02:07;72008.63;;;-148.52;43.53
3254;BME280;1639;42.804;23.342;2023-09-08T09:04:36;72023.09;;;-148.52;43.02
3254;BME280;1639;42.804;23.342;2023-09-08T09:07:02;71992.06;;;-148.52;43.40
3254;BME280;1639;42.804;23.342;2023-09-08T09:09:29;71977.59;;;-148.52;43.23
3254;BME280;1639;42.804;23.342;2023-09-08T09:11:55;71956.94;;;-148.52;42.27
3254;BME280;1639;42.804;23.342;2023-09-08T09:14:20;71965.19;;;-148.52;42.94
3254;BME280;1639;42.804;23.342;2023-09-08T09:16:46;71969.34;;;-148.52;42.31
3254;BME280;1639;42.804;23.342;2023-09-08T09:19:20;71963.13;;;-148.52;42.47
3254;BME280;1639;42.804;23.342;2023-09-08T09:21:57;71975.53;;;-148.52;42.11
3254;BME280;1639;42.804;23.342;2023-09-08T09:24:34;71987.94;;;-148.52;42.53
3254;BME280;1639;42.804;23.342;2023-09-08T09:27:04;71983.81;;;-148.52;43.30
3254;BME280;1639;42.804;23.342;2023-09-08T09:29:31;71977.59;;;-148.52;42.95
3254;BME280;1639;42.804;23.342;2023-09-08T09:32:02;71963.13;;;-148.52;42.98
3254;BME280;1639;42.804;23.342;2023-09-08T09:34:27;71971.41;;;-148.52;43.40
3254;BME280;1639;42.804;23.342;2023-09-08T09:36:53;71965.19;;;-148.52;43.12
3254;BME280;1639;42.804;23.342;2023-09-08T09:39:20;71950.72;;;-148.52;42.67
3254;BME280;1639;42.804;23.342;2023-09-08T09:41:47;71952.78;;;-148.52;42.98
3254;BME280;1639;42.804;23.342;2023-09-08T09:44:12;71927.97;;;-148.52;43.12
3254;BME280;1639;42.804;23.342;2023-09-08T09:46:38;71919.72;;;-148.52;42.79
3254;BME280;1639;42.804;23.342;2023-09-08T09:49:10;71921.78;;;-148.52;42.53
3254;BME280;1639;42.804;23.342;2023-09-08T09:51:40;71921.78;;;-148.52;43.09
3254;BME280;1639;42.804;23.342;2023-09-08T09:54:07;71923.84;;;-148.52;42.88
3254;BME280;1639;42.804;23.342;2023-09-08T09:56:32;71927.97;;;-148.52;43.46
3254;BME280;1639;42.804;23.342;2023-09-08T09:59:01;71911.44;;;-148.52;43.17
3254;BME280;1639;42.804;23.342;2023-09-08T10:01:28;71905.22;;;-148.52;43.91
3254;BME280;1639;42.804;23.342;2023-09-08T10:03:55;71896.97;;;-148.52;43.49
3254;BME280;1639;42.804;23.342;2023-09-08T10:06:20;71892.81;;;-148.52;43.16
3254;BME280;1639;42.804;23.342;2023-09-08T10:08:47;71876.28;;;-148.52;43.31
3254;BME280;1639;42.804;23.342;2023-09-08T10:11:15;71870.09;;;-148.52;43.66
3254;BME280;1639;42.804;23.342;2023-09-08T10:13:45;71851.47;;;-148.52;42.97
3254;BME280;1639;42.804;23.342;2023-09-08T10:16:13;71851.47;;;-148.52;41.55
3254;BME280;1639;42.804;23.342;2023-09-08T10:18:44;71845.28;;;-148.52;41.89
3254;BME280;1639;42.804;23.342;2023-09-08T10:21:11;71847.34;;;-148.52;42.14
3254;BME280;1639;42.804;23.342;2023-09-08T10:23:43;71878.34;;;-148.52;42.80
3254;BME280;1639;42.804;23.342;2023-09-08T10:26:10;71878.34;;;-148.52;43.07
3254;BME280;1639;42.804;23.342;2023-09-08T10:28:37;71857.69;;;-148.52;43.59
3254;BME280;1639;42.804;23.342;2023-09-08T10:31:04;71795.66;;;-148.52;45.08
3254;BME280;1639;42.804;23.342;2023-09-08T10:33:31;71731.56;;;-148.52;43.13
3254;BME280;1639;42.804;23.342;2023-09-08T10:35:57;71723.28;;;-148.52;40.60
3254;BME280;1639;42.804;23.342;2023-09-08T10:38:27;71768.78;;;-148.52;41.02
3254;BME280;1639;42.804;23.342;2023-09-08T10:44:02;71834.94;;;-148.52;42.12
3254;BME280;1639;42.804;23.342;2023-09-08T10:46:31;71851.47;;;-148.52;42.78
3254;BME280;1639;42.804;23.342;2023-09-08T10:49:04;71791.50;;;-148.52;43.62
3254;BME280;1639;42.804;23.342;2023-09-08T10:51:32;71733.63;;;-148.52;41.93
3254;BME280;1639;42.804;23.342;2023-09-08T10:53:58;71715.00;;;-148.52;39.77
3254;BME280;1639;42.804;23.342;2023-09-08T10:56:29;71733.63;;;-148.52;40.10
3254;BME280;1639;42.804;23.342;2023-09-08T10:58:54;71733.63;;;-148.52;40.49
3254;BME280;1639;42.804;23.342;2023-09-08T11:01:20;71729.50;;;-148.52;40.99
3254;BME280;1639;42.804;23.342;2023-09-08T11:03:52;71743.97;;;-148.52;40.65
3254;BME280;1639;42.804;23.342;2023-09-08T11:06:20;71768.78;;;-148.52;40.57
3254;BME280;1639;42.804;23.342;2023-09-08T11:08:49;71756.38;;;-148.52;40.64
3254;BME280;1639;42.804;23.342;2023-09-08T11:11:18;71739.81;;;-148.52;40.33
3254;BME280;1639;42.804;23.342;2023-09-08T11:13:44;71719.16;;;-148.52;40.09
3254;BME280;1639;42.804;23.342;2023-09-08T11:16:15;71694.34;;;-148.52;39.70
3254;BME280;1639;42.804;23.342;2023-09-08T11:18:41;71646.78;;;-148.52;40.44
3254;BME280;1639;42.804;23.342;2023-09-08T11:21:08;71636.44;;;-148.52;39.64
3254;BME280;1639;42.804;23.342;2023-09-08T11:23:34;71677.78;;;-148.52;39.99
3254;BME280;1639;42.804;23.342;2023-09-08T11:25:59;71667.47;;;-148.52;41.10
3254;BME280;1639;42.804;23.342;2023-09-08T11:28:26;71638.50;;;-148.52;39.61
3254;BME280;1639;42.804;23.342;2023-09-08T11:30:52;71574.41;;;-148.52;40.42
3254;BME280;1639;42.804;23.342;2023-09-08T11:33:20;71626.09;;;-148.52;39.55
3254;BME280;1639;42.804;23.342;2023-09-08T11:35:51;71615.78;;;-148.52;40.27
3254;BME280;1639;42.804;23.342;2023-09-08T11:38:22;71688.13;;;-148.52;40.86
3254;BME280;1639;42.804;23.342;2023-09-08T11:40:49;71686.06;;;-148.52;40.83
3254;BME280;1639;42.804;23.342;2023-09-08T11:43:15;71601.31;;;-148.52;40.50
3254;BME280;1639;42.804;23.342;2023-09-08T11:45:42;71541.34;;;-148.52;39.29
3254;BME280;1639;42.804;23.342;2023-09-08T11:48:08;71533.06;;;-148.52;38.70
3254;BME280;1639;42.804;23.342;2023-09-08T11:50:33;71555.81;;;-148.52;39.92
3254;BME280;1639;42.804;23.342;2023-09-08T11:52:59;71520.66;;;-148.52;38.41
3254;BME280;1639;42.804;23.342;2023-09-08T11:55:25;71500.00;;;-148.52;38.09
3254;BME280;1639;42.804;23.342;2023-09-08T11:57:55;71566.16;;;-148.52;37.48
3254;BME280;1639;42.804;23.342;2023-09-08T12:00:23;71541.34;;;-148.52;38.07
3254;BME280;1639;42.804;23.342;2023-09-08T12:02:51;71543.41;;;-148.52;39.04
3254;BME280;1639;42.804;23.342;2023-09-08T12:05:26;71584.75;;;-148.52;39.04
3254;BME280;1639;42.804;23.342;2023-09-08T12:07:56;71632.31;;;-148.52;39.79
3254;BME280;1639;42.804;23.342;2023-09-08T12:10:22;71702.59;;;-148.52;40.37
3254;BME280;1639;42.804;23.342;2023-09-08T12:12:51;71679.88;;;-148.52;40.60
3254;BME280;1639;42.804;23.342;2023-09-08T12:18:04;71624.03;;;-148.52;39.68
3254;BME280;1639;42.804;23.342;2023-09-08T12:20:30;71590.97;;;-148.52;38.27
3254;BME280;1639;42.804;23.342;2023-09-08T12:23:01;71559.94;;;-148.52;38.82
3254;BME280;1639;42.804;23.342;2023-09-08T12:25:27;71547.53;;;-148.52;37.75
3254;BME280;1639;42.804;23.342;2023-09-08T12:27:54;71539.28;;;-148.52;38.60
3254;BME280;1639;42.804;23.342;2023-09-08T12:30:21;71531.00;;;-148.52;37.62
3254;BME280;1639;42.804;23.342;2023-09-08T12:32:48;71566.16;;;-148.52;38.85
3254;BME280;1639;42.804;23.342;2023-09-08T12:35:22;71593.03;;;-148.52;38.55
3254;BME280;1639;42.804;23.342;2023-09-08T12:38:05;71648.84;;;-148.52;39.25
3254;BME280;1639;42.804;23.342;2023-09-08T12:40:35;71650.91;;;-148.52;40.09
3254;BME280;1639;42.804;23.342;2023-09-08T12:43:01;71696.41;;;-148.52;40.19
3254;BME280;1639;42.804;23.342;2023-09-08T12:45:27;71696.41;;;-148.52;41.18
3254;BME280;1639;42.804;23.342;2023-09-08T12:47:53;71696.41;;;-148.52;41.28
3254;BME280;1639;42.804;23.342;2023-09-08T12:50:23;71702.59;;;-148.52;41.37
3254;BME280;1639;42.804;23.342;2023-09-08T12:52:48;71681.94;;;-148.52;41.18
3254;BME280;1639;42.804;23.342;2023-09-08T12:55:14;71686.06;;;-148.52;40.17
3254;BME280;1639;42.804;23.342;2023-09-08T12:57:39;71661.25;;;-148.52;40.67